Time;durP1;ratioP1;P1;durP2;ratioP2;P2;SDS_P1;SDS_P2;PMS_P1;PMS_P2;Temp;Humidity;BMP_temperature;BMP_pressure;BME280_temperature;BME280_humidity;BME280_pressure;Samples;Min_cycle;Max_cycle;Signal;HPM_P1;HPM_P2
2023/10/09 00:02:06;;;;;;;13.73;5.88;;;;;15.20;99171.00;;;;5093955;28;20055;-64
2023/10/09 00:04:36;;;;;;;8.77;5.18;;;;;15.10;99168.00;;;;5092024;28;20121;-65
2023/10/09 00:07:07;;;;;;;11.43;5.60;;;;;15.10;99172.00;;;;5092479;28;20040;-64
2023/10/09 00:09:47;;;;;;;13.88;6.15;;;;;15.10;99166.00;;;;5092467;28;20144;-65
2023/10/09 00:12:16;;;;;;;12.25;6.32;;;;;15.00;99166.00;;;;5093515;28;20048;-64
2023/10/09 00:14:47;;;;;;;11.05;6.20;;;;;14.90;99176.00;;;;5093025;28;20101;-64
2023/10/09 00:17:18;;;;;;;12.18;6.57;;;;;14.70;99171.00;;;;5093553;28;20044;-64
2023/10/09 00:19:49;;;;;;;11.40;5.50;;;;;14.60;99177.00;;;;5093615;28;20055;-64
2023/10/09 00:22:26;;;;;;;12.52;5.70;;;;;14.70;99180.00;;;;5092397;28;20043;-65
2023/10/09 00:25:10;;;;;;;11.85;5.47;;;;;14.90;99180.00;;;;5093744;28;20044;-64
2023/10/09 00:27:42;;;;;;;11.05;6.10;;;;;15.00;99179.00;;;;5094136;28;20087;-64
2023/10/09 00:30:17;;;;;;;10.18;6.13;;;;;15.00;99173.00;;;;5093247;28;20044;-64
2023/10/09 00:32:58;;;;;;;10.13;6.13;;;;;15.00;99166.00;;;;5092901;28;20461;-64
2023/10/09 00:35:36;;;;;;;8.93;5.60;;;;;15.00;99163.00;;;;5092615;28;20130;-65
2023/10/09 00:41:03;;;;;;;10.85;5.53;;;;;14.90;99157.00;;;;5093230;28;20600;-65
2023/10/09 00:43:30;;;;;;;11.68;6.18;;;;;14.90;99151.00;;;;5092536;28;20035;-64
2023/10/09 00:46:03;;;;;;;10.55;6.28;;;;;15.00;99153.00;;;;5092014;28;20240;-64
2023/10/09 00:48:31;;;;;;;13.20;6.15;;;;;15.10;99145.00;;;;5091758;28;20048;-64
2023/10/09 00:51:00;;;;;;;9.70;5.95;;;;;15.20;99148.00;;;;5092855;28;20071;-64
2023/10/09 00:53:30;;;;;;;9.15;5.63;;;;;15.20;99143.00;;;;5091326;28;20512;-65
2023/10/09 00:56:18;;;;;;;11.23;5.95;;;;;15.00;99143.00;;;;5092779;28;20485;-65
2023/10/09 00:58:55;;;;;;;15.27;6.68;;;;;14.80;99140.00;;;;5091761;28;20484;-65
2023/10/09 01:01:28;;;;;;;10.35;5.45;;;;;14.70;99143.00;;;;5092785;28;20047;-65
2023/10/09 01:03:54;;;;;;;8.88;5.47;;;;;14.60;99140.00;;;;5092325;28;20040;-65
2023/10/09 01:06:27;;;;;;;12.32;6.57;;;;;14.60;99138.00;;;;5091216;28;20567;-65
2023/10/09 01:09:09;;;;;;;12.02;6.03;;;;;14.70;99132.00;;;;5092749;28;20114;-65
2023/10/09 01:11:47;;;;;;;10.88;5.70;;;;;14.70;99128.00;;;;5092685;28;20036;-65
2023/10/09 01:14:15;;;;;;;7.82;5.20;;;;;14.80;99123.00;;;;5092028;28;20139;-65
2023/10/09 01:16:43;;;;;;;14.00;6.60;;;;;14.80;99118.00;;;;5090996;28;20126;-65
2023/10/09 01:19:20;;;;;;;9.25;5.50;;;;;14.80;99124.00;;;;5092456;28;20063;-65
2023/10/09 01:21:48;;;;;;;9.98;5.60;;;;;14.80;99118.00;;;;5090988;28;20048;-65
2023/10/09 01:24:16;;;;;;;12.98;5.70;;;;;14.80;99107.00;;;;5091725;28;20040;-65
2023/10/09 01:26:46;;;;;;;16.35;6.60;;;;;14.80;99114.00;;;;5092146;28;20075;-65
2023/10/09 01:29:14;;;;;;;10.80;6.25;;;;;14.80;99110.00;;;;5092517;28;20059;-65
2023/10/09 01:31:55;;;;;;;10.43;5.28;;;;;14.80;99108.00;;;;5091077;28;20139;-64
2023/10/09 01:34:38;;;;;;;12.18;5.88;;;;;14.80;99107.00;;;;5090339;28;20045;-64
2023/10/09 01:37:11;;;;;;;14.10;6.75;;;;;14.80;99105.00;;;;5090873;28;20047;-64
2023/10/09 01:39:42;;;;;;;10.38;5.70;;;;;14.70;99101.00;;;;5074315;28;20501;-64
2023/10/09 01:42:10;;;;;;;11.90;5.80;;;;;14.60;99100.00;;;;5074319;28;20134;-65
2023/10/09 01:44:43;;;;;;;16.27;6.22;;;;;14.60;99105.00;;;;5090447;28;20044;-64
2023/10/09 01:47:18;;;;;;;10.87;6.10;;;;;14.70;99098.00;;;;5091041;28;20764;-64
2023/10/09 01:49:48;;;;;;;13.15;6.03;;;;;14.80;99092.00;;;;5091370;28;20516;-64
2023/10/09 01:52:16;;;;;;;12.73;5.90;;;;;14.90;99094.00;;;;5074290;28;20044;-64
2023/10/09 01:54:50;;;;;;;12.82;5.75;;;;;14.90;99089.00;;;;5091525;28;20046;-64
2023/10/09 01:57:22;;;;;;;12.50;6.03;;;;;14.80;99084.00;;;;5090738;28;20140;-64
2023/10/09 01:59:53;;;;;;;12.02;5.53;;;;;14.80;99074.00;;;;5092016;28;20527;-63
2023/10/09 02:02:26;;;;;;;8.93;5.40;;;;;14.80;99074.00;;;;5074098;28;20048;-63
2023/10/09 02:07:51;;;;;;;10.65;5.93;;;;;14.50;99076.00;;;;5091883;28;20043;-64
2023/10/09 02:12:59;;;;;;;11.73;5.38;;;;;14.40;99073.00;;;;5090771;28;20044;-63
2023/10/09 02:16:13;;;;;;;13.90;5.88;;;;;14.50;99077.00;;;;5089828;28;20051;-63
2023/10/09 02:26:25;;;;;;;14.15;6.78;;;;;14.90;99076.00;;;;5090131;28;20048;-64
2023/10/09 02:29:18;;;;;;;9.60;5.18;;;;;14.90;99071.00;;;;5074000;28;20439;-64
2023/10/09 02:31:46;;;;;;;14.43;5.90;;;;;14.80;99073.00;;;;5090241;28;20500;-63
2023/10/09 02:34:15;;;;;;;16.88;5.53;;;;;14.90;99075.00;;;;5091302;28;20438;-64
2023/10/09 02:36:43;;;;;;;14.10;6.53;;;;;14.90;99078.00;;;;5090356;28;20105;-64
2023/10/09 02:39:30;;;;;;;9.85;5.95;;;;;14.90;99077.00;;;;5090292;28;20048;-63
2023/10/09 02:44:49;;;;;;;14.85;5.85;;;;;14.90;99067.00;;;;5090989;28;20077;-63
2023/10/09 02:47:24;;;;;;;10.85;5.82;;;;;14.90;99073.00;;;;5090026;28;20458;-63
2023/10/09 02:49:51;;;;;;;10.85;6.22;;;;;15.00;99072.00;;;;5090155;28;20044;-63
2023/10/09 02:52:19;;;;;;;10.63;6.15;;;;;14.90;99078.00;;;;5090221;28;20052;-63
2023/10/09 02:54:57;;;;;;;12.00;6.30;;;;;14.80;99070.00;;;;5090815;28;20040;-64
2023/10/09 02:57:36;;;;;;;11.98;6.10;;;;;14.60;99070.00;;;;5091245;28;20097;-64
2023/10/09 03:00:08;;;;;;;12.77;5.68;;;;;14.70;99063.00;;;;5090407;28;20044;-64
2023/10/09 03:02:39;;;;;;;10.20;6.13;;;;;14.90;99067.00;;;;5095125;28;20044;-63
2023/10/09 03:05:11;;;;;;;11.45;6.00;;;;;14.90;99064.00;;;;5094658;28;20036;-65
2023/10/09 03:07:42;;;;;;;12.15;6.00;;;;;14.90;99071.00;;;;5093767;28;20052;-64
2023/10/09 03:10:09;;;;;;;11.93;6.38;;;;;14.90;99071.00;;;;5094998;28;20056;-64
2023/10/09 03:12:36;;;;;;;14.07;6.88;;;;;14.90;99066.00;;;;5094892;28;20501;-64
2023/10/09 03:15:07;;;;;;;9.98;6.30;;;;;14.90;99072.00;;;;5094249;28;20127;-64
2023/10/09 03:17:34;;;;;;;13.10;6.95;;;;;15.00;99067.00;;;;5093452;28;20040;-64
2023/10/09 03:20:12;;;;;;;11.10;6.18;;;;;15.00;99077.00;;;;5094720;28;20566;-64
2023/10/09 03:22:40;;;;;;;12.43;6.63;;;;;15.00;99081.00;;;;5094666;28;20072;-65
2023/10/09 03:25:16;;;;;;;11.20;6.47;;;;;14.90;99083.00;;;;5092699;28;20598;-65
2023/10/09 03:27:46;;;;;;;12.27;7.00;;;;;14.80;99079.00;;;;5094563;28;20062;-64
2023/10/09 03:30:22;;;;;;;16.25;6.90;;;;;14.80;99076.00;;;;5093518;28;20093;-64
2023/10/09 03:32:54;;;;;;;12.65;7.05;;;;;14.90;99078.00;;;;5094490;28;20047;-65
2023/10/09 03:35:25;;;;;;;12.40;6.72;;;;;14.80;99085.00;;;;5092595;28;20040;-64
2023/10/09 03:38:00;;;;;;;13.18;6.35;;;;;14.60;99075.00;;;;5094292;28;20382;-64
2023/10/09 03:40:27;;;;;;;12.75;6.60;;;;;14.50;99082.00;;;;5093130;28;20044;-64
2023/10/09 03:42:53;;;;;;;11.68;6.07;;;;;14.50;99079.00;;;;5094237;28;20115;-65
2023/10/09 03:45:27;;;;;;;14.02;9.20;;;;;14.50;99090.00;;;;5075485;28;20048;-64
2023/10/09 03:47:57;;;;;;;12.65;7.03;;;;;14.50;99085.00;;;;5094329;28;20036;-65
2023/10/09 03:50:26;;;;;;;11.63;6.30;;;;;14.50;99075.00;;;;5094285;28;20040;-64
2023/10/09 03:52:54;;;;;;;19.15;7.97;;;;;14.60;99076.00;;;;5094200;28;20047;-64
2023/10/09 03:55:27;;;;;;;17.17;8.23;;;;;14.60;99078.00;;;;5092040;28;20050;-64
2023/10/09 03:57:57;;;;;;;10.40;6.05;;;;;14.60;99068.00;;;;5092611;28;20040;-65
2023/10/09 04:00:27;;;;;;;13.55;6.28;;;;;14.60;99073.00;;;;5093883;28;20673;-64
2023/10/09 04:02:58;;;;;;;15.63;6.32;;;;;14.80;99069.00;;;;5075920;28;20067;-65
2023/10/09 04:05:25;;;;;;;21.60;7.65;;;;;14.90;99070.00;;;;5093310;28;20050;-65
2023/10/09 04:07:56;;;;;;;12.20;6.90;;;;;14.90;99062.00;;;;5093858;28;20105;-64
2023/10/09 04:13:16;;;;;;;13.38;7.32;;;;;15.00;99058.00;;;;5093204;28;20086;-63
2023/10/09 04:15:43;;;;;;;17.85;12.13;;;;;15.00;99052.00;;;;5093222;28;20093;-63
2023/10/09 04:18:19;;;;;;;15.63;7.20;;;;;14.90;99044.00;;;;5093882;28;20051;-63
2023/10/09 04:23:59;;;;;;;11.98;6.32;;;;;14.60;99038.00;;;;5093129;28;20048;-65
2023/10/09 04:26:25;;;;;;;16.25;7.53;;;;;14.60;99036.00;;;;5093502;28;20390;-64
2023/10/09 04:28:55;;;;;;;12.20;6.55;;;;;14.50;99031.00;;;;5093900;28;20044;-64
2023/10/09 04:31:31;;;;;;;19.92;9.15;;;;;14.50;99031.00;;;;5093660;28;20131;-64
2023/10/09 04:36:48;;;;;;;22.40;8.23;;;;;14.80;99027.00;;;;5093345;28;20124;-64
2023/10/09 04:45:59;;;;;;;15.38;8.45;;;;;14.80;99025.00;;;;5092927;28;20086;-64
2023/10/09 04:48:32;;;;;;;22.02;12.38;;;;;14.80;99027.00;;;;5081680;28;20071;-64
2023/10/09 04:53:22;;;;;;;13.45;7.63;;;;;14.70;99040.00;;;;5113113;28;20036;-65
2023/10/09 04:55:53;;;;;;;11.93;6.90;;;;;14.60;99038.00;;;;5109906;28;20066;-64
2023/10/09 04:58:25;;;;;;;19.63;8.57;;;;;14.60;99047.00;;;;5110578;28;20078;-64
2023/10/09 05:03:42;;;;;;;14.10;7.03;;;;;14.80;99056.00;;;;5113761;28;20048;-65
2023/10/09 05:08:55;;;;;;;11.15;6.55;;;;;14.90;99062.00;;;;5112626;28;20048;-64
2023/10/09 05:11:52;;;;;;;10.07;6.53;;;;;14.90;99055.00;;;;5114097;28;20306;-64
2023/10/09 05:14:27;;;;;;;11.35;6.50;;;;;15.00;99063.00;;;;5111638;28;20052;-63
2023/10/09 05:16:54;;;;;;;12.65;6.15;;;;;15.00;99059.00;;;;5113887;28;20051;-64
2023/10/09 05:22:36;;;;;;;11.35;6.53;;;;;14.90;99078.00;;;;5112257;28;20075;-63
2023/10/09 05:25:14;;;;;;;14.48;6.53;;;;;14.90;99079.00;;;;5111707;28;20040;-64
2023/10/09 05:27:50;;;;;;;12.07;6.25;;;;;15.00;99079.00;;;;5114069;28;20040;-63
2023/10/09 05:30:27;;;;;;;16.92;7.75;;;;;15.00;99086.00;;;;5114434;28;20059;-63
2023/10/09 05:32:58;;;;;;;15.25;6.95;;;;;15.00;99078.00;;;;5111771;28;20131;-63
2023/10/09 05:35:40;;;;;;;12.98;6.10;;;;;15.00;99068.00;;;;5110667;28;20040;-64
2023/10/09 05:38:23;;;;;;;12.95;6.53;;;;;15.10;99074.00;;;;5110897;28;20032;-64
2023/10/09 05:40:53;;;;;;;18.35;6.47;;;;;15.10;99070.00;;;;5113373;28;20099;-64
2023/10/09 05:46:09;;;;;;;11.55;5.80;;;;;15.20;99065.00;;;;5096730;28;20150;-64
2023/10/09 06:03:16;;;;;;;11.55;6.30;;;;;14.70;99074.00;;;;5091737;28;20052;-62
2023/10/09 06:04:54;;;;;;;15.98;6.50;;;;;14.70;99082.00;;;;5092386;28;20040;-64
2023/10/09 06:07:40;;;;;;;13.45;6.35;;;;;14.80;99077.00;;;;5091673;28;20044;-63
2023/10/09 06:10:10;;;;;;;14.82;6.47;;;;;14.90;99071.00;;;;5092696;28;20451;-64
2023/10/09 06:15:30;;;;;;;13.32;6.93;;;;;15.10;99086.00;;;;5092318;28;20485;-63
2023/10/09 06:18:25;;;;;;;13.77;6.97;;;;;15.20;99088.00;;;;5091254;28;20040;-63
2023/10/09 06:21:39;;;;;;;12.30;6.63;;;;;15.30;99087.00;;;;5092468;28;20056;-63
2023/10/09 06:26:26;;;;;;;12.40;6.30;;;;;15.30;99093.00;;;;5092670;28;20043;-64
2023/10/09 06:29:14;;;;;;;13.73;6.88;;;;;15.30;99091.00;;;;5092577;28;20040;-63
2023/10/09 06:31:57;;;;;;;16.25;6.03;;;;;15.40;99090.00;;;;5092375;28;20044;-64
2023/10/09 06:34:35;;;;;;;10.50;6.70;;;;;15.40;99114.00;;;;5090741;28;20086;-64
2023/10/09 06:37:17;;;;;;;12.10;7.25;;;;;15.40;99103.00;;;;5095541;28;20044;-65
2023/10/09 06:39:50;;;;;;;11.43;6.70;;;;;15.50;99103.00;;;;5094611;28;20081;-64
2023/10/09 06:45:09;;;;;;;11.93;6.35;;;;;15.60;99107.00;;;;5095179;28;20044;-65
2023/10/09 06:47:41;;;;;;;15.30;6.38;;;;;15.60;99105.00;;;;5095573;28;20514;-65
2023/10/09 06:52:57;;;;;;;12.73;5.80;;;;;15.70;99112.00;;;;5095529;28;20455;-64
2023/10/09 06:55:48;;;;;;;11.43;6.50;;;;;15.80;99119.00;;;;5095242;28;20040;-64
2023/10/09 06:58:22;;;;;;;15.68;6.45;;;;;15.90;99107.00;;;;5095395;28;20481;-64
2023/10/09 07:03:36;;;;;;;12.45;6.75;;;;;15.90;99116.00;;;;5094935;28;20508;-64
2023/10/09 07:06:23;;;;;;;13.90;6.70;;;;;15.80;99107.00;;;;5095387;28;20040;-63
2023/10/09 07:14:07;;;;;;;;;;;;;15.90;99122.00;;;;5095108;28;20048;-63
2023/10/09 07:16:56;;;;;;;15.30;5.88;;;;;15.90;99121.00;;;;5095649;28;20376;-63
2023/10/09 07:22:23;;;;;;;11.75;6.50;;;;;15.90;99132.00;;;;5095384;28;20048;-63
2023/10/09 07:24:58;;;;;;;14.30;6.65;;;;;16.00;99142.00;;;;5094529;28;20048;-64
2023/10/09 07:27:48;;;;;;;11.95;7.47;;;;;16.00;99140.00;;;;5094833;28;20554;-64
2023/10/09 07:35:47;;;;;;;12.13;6.68;;;;;16.10;99140.00;;;;5092937;28;20142;-64
2023/10/09 07:38:35;;;;;;;11.60;5.47;;;;;16.20;99136.00;;;;5095769;28;20036;-63
2023/10/09 07:41:44;;;;;;;13.55;6.13;;;;;16.40;99143.00;;;;5094914;28;20047;-64
2023/10/09 07:43:55;;;;;;;14.73;6.70;;;;;16.40;99129.00;;;;5090302;28;20144;-65
2023/10/09 07:46:51;;;;;;;13.65;7.07;;;;;16.50;99127.00;;;;5092847;28;20477;-64
2023/10/09 07:49:25;;;;;;;14.18;6.32;;;;;16.60;99128.00;;;;5095194;28;20051;-64
2023/10/09 07:51:55;;;;;;;17.13;7.00;;;;;16.70;99138.00;;;;5094521;28;20066;-64
2023/10/09 07:54:49;;;;;;;16.20;6.35;;;;;16.80;99134.00;;;;5093158;28;20130;-65
2023/10/09 07:57:16;;;;;;;16.30;7.68;;;;;16.90;99135.00;;;;5094698;28;20094;-65
2023/10/09 07:59:54;;;;;;;20.10;6.72;;;;;17.00;99134.00;;;;5094403;28;20071;-64
2023/10/09 08:02:31;;;;;;;16.60;6.45;;;;;17.10;99131.00;;;;5094260;28;20051;-64
2023/10/09 08:05:04;;;;;;;15.02;5.97;;;;;17.30;99138.00;;;;5093925;28;20466;-64
2023/10/09 08:07:34;;;;;;;10.93;6.63;;;;;17.40;99138.00;;;;5094429;28;20040;-63
2023/10/09 08:17:53;;;;;;;15.35;5.75;;;;;17.80;99130.00;;;;5093815;28;20412;-63
2023/10/09 08:20:26;;;;;;;16.25;5.68;;;;;17.90;99133.00;;;;5093763;28;20463;-65
2023/10/09 08:22:56;;;;;;;10.63;4.70;;;;;18.00;99123.00;;;;5093884;28;20047;-64
2023/10/09 08:25:35;;;;;;;13.63;5.05;;;;;18.00;99129.00;;;;5092095;28;20131;-64
2023/10/09 08:30:49;;;;;;;11.23;4.93;;;;;18.20;99136.00;;;;5093566;28;20047;-63
2023/10/09 08:36:01;;;;;;;10.55;4.78;;;;;18.40;99145.00;;;;5093659;28;20046;-64
2023/10/09 08:38:33;;;;;;;15.80;4.85;;;;;18.50;99151.00;;;;5093418;28;20036;-65
2023/10/09 08:41:15;;;;;;;13.65;5.22;;;;;18.60;99148.00;;;;5092314;28;20047;-64
2023/10/09 08:43:51;;;;;;;15.77;4.93;;;;;18.70;99146.00;;;;5092942;28;20783;-63
2023/10/09 08:46:28;;;;;;;15.10;4.82;;;;;18.70;99157.00;;;;5093555;28;20044;-64
2023/10/09 08:48:58;;;;;;;14.07;5.00;;;;;18.80;99161.00;;;;5092158;28;20059;-64
2023/10/09 08:51:26;;;;;;;10.77;4.75;;;;;18.90;99161.00;;;;5093215;28;20052;-64
2023/10/09 08:53:53;;;;;;;12.52;4.82;;;;;19.00;99166.00;;;;5091394;28;20054;-65
2023/10/09 08:56:22;;;;;;;14.10;5.20;;;;;19.10;99170.00;;;;5092159;28;20059;-63
2023/10/09 08:58:49;;;;;;;10.30;4.82;;;;;19.10;99166.00;;;;5092982;28;20139;-65
2023/10/09 09:01:19;;;;;;;11.38;4.65;;;;;19.30;99169.00;;;;5093456;28;20059;-64
2023/10/09 09:03:48;;;;;;;14.45;4.80;;;;;19.30;99166.00;;;;5091704;28;20044;-64
2023/10/09 09:06:14;;;;;;;14.25;5.28;;;;;19.40;99151.00;;;;5093095;28;20087;-64
2023/10/09 09:08:44;;;;;;;11.85;4.80;;;;;19.50;99152.00;;;;5093047;28;20109;-64
2023/10/09 09:13:50;;;;;;;11.10;4.30;;;;;19.50;99152.00;;;;5091127;28;20495;-64
2023/10/09 09:16:18;;;;;;;14.32;5.15;;;;;19.60;99152.00;;;;5074911;28;20416;-63
2023/10/09 09:21:47;;;;;;;11.48;5.30;;;;;19.80;99170.00;;;;5084734;28;20131;-63
2023/10/09 09:27:09;;;;;;;9.80;4.90;;;;;20.10;99159.00;;;;5092756;28;20483;-64
2023/10/09 09:29:38;;;;;;;8.90;4.40;;;;;20.30;99159.00;;;;5094243;28;20040;-65
2023/10/09 09:32:17;;;;;;;12.98;4.78;;;;;20.60;99159.00;;;;5092849;28;20093;-64
2023/10/09 09:34:55;;;;;;;12.02;4.28;;;;;20.80;99160.00;;;;5092158;28;20130;-64
2023/10/09 09:38:17;;;;;;;14.00;5.25;;;;;20.90;99155.00;;;;5093174;28;20047;-64
2023/10/09 09:40:30;;;;;;;13.38;4.40;;;;;21.10;99151.00;;;;5091562;28;20059;-65
2023/10/09 09:43:05;;;;;;;12.10;4.70;;;;;21.20;99150.00;;;;5098778;28;20063;-65
2023/10/09 09:45:33;;;;;;;16.15;4.38;;;;;21.00;99151.00;;;;5099463;28;20135;-65
2023/10/09 09:48:05;;;;;;;11.88;4.57;;;;;20.90;99155.00;;;;5095509;28;20331;-64
2023/10/09 09:50:33;;;;;;;12.18;4.40;;;;;20.80;99160.00;;;;5094571;28;20048;-64
2023/10/09 09:53:00;;;;;;;13.90;4.97;;;;;20.70;99170.00;;;;5098993;28;20044;-64
2023/10/09 09:55:33;;;;;;;11.70;4.88;;;;;20.60;99163.00;;;;5094817;28;20123;-64
2023/10/09 09:58:01;;;;;;;;;;;;;20.70;99157.00;;;;5093666;28;20040;-64
2023/10/09 10:03:16;;;;;;;16.02;4.63;;;;;20.60;99160.00;;;;5092342;28;20047;-64
2023/10/09 10:05:46;;;;;;;11.68;4.03;;;;;20.60;99157.00;;;;5091594;28;20122;-64
2023/10/09 10:08:19;;;;;;;10.35;4.90;;;;;20.60;99160.00;;;;5091213;28;20040;-66
2023/10/09 10:10:49;;;;;;;10.95;4.32;;;;;20.70;99158.00;;;;5093682;28;20412;-65
2023/10/09 10:13:27;;;;;;;12.20;4.10;;;;;20.90;99171.00;;;;5096506;28;20113;-63
2023/10/09 10:16:34;;;;;;;17.50;5.38;;;;;20.90;99172.00;;;;5096526;28;20040;-61
2023/10/09 10:22:48;;;;;;;7.03;3.95;;;;;20.90;99186.00;;;;5068329;28;20466;-63
2023/10/09 10:25:35;;;;;;;14.48;5.22;;;;;21.00;99185.00;;;;5069317;28;20065;-66
2023/10/09 10:31:08;;;;;;;12.98;4.80;;;;;21.10;99187.00;;;;5069637;28;20052;-66
2023/10/09 10:33:54;;;;;;;9.57;4.60;;;;;21.20;99192.00;;;;5069212;28;20090;-66
2023/10/09 10:36:26;;;;;;;14.43;4.32;;;;;21.30;99187.00;;;;5069733;28;20043;-66
2023/10/09 10:41:55;;;;;;;11.63;4.60;;;;;21.60;99196.00;;;;5069408;28;20405;-65
2023/10/09 10:44:41;;;;;;;13.95;4.35;;;;;21.80;99190.00;;;;5067238;28;20136;-67
2023/10/09 10:47:22;;;;;;;10.40;4.57;;;;;21.90;99187.00;;;;5068968;28;20075;-65
2023/10/09 10:50:11;;;;;;;15.10;5.03;;;;;22.10;99188.00;;;;5068914;28;20056;-63
2023/10/09 10:52:44;;;;;;;12.60;4.18;;;;;22.20;99194.00;;;;5068707;28;20079;-63
2023/10/09 10:58:00;;;;;;;10.70;4.25;;;;;22.40;99184.00;;;;5068591;28;20041;-64
2023/10/09 11:03:35;;;;;;;12.38;4.32;;;;;22.50;99167.00;;;;5066543;28;20413;-65
2023/10/09 11:06:13;;;;;;;9.50;4.30;;;;;22.60;99163.00;;;;5068611;28;20398;-65
2023/10/09 11:09:08;;;;;;;11.18;4.72;;;;;22.90;99144.00;;;;5068508;28;20122;-65
2023/10/09 11:11:46;;;;;;;10.13;4.30;;;;;23.10;99145.00;;;;5068457;28;20033;-63
2023/10/09 11:14:42;;;;;;;13.70;4.65;;;;;23.40;99143.00;;;;5067862;28;20490;-64
2023/10/09 11:17:23;;;;;;;13.68;5.00;;;;;23.50;99146.00;;;;5067826;28;20055;-64
2023/10/09 11:19:52;;;;;;;8.88;4.03;;;;;23.50;99152.00;;;;5068059;28;20098;-65
2023/10/09 11:22:28;;;;;;;10.45;4.57;;;;;23.50;99152.00;;;;5068148;28;20049;-65
2023/10/09 11:25:18;;;;;;;8.93;4.10;;;;;23.60;99155.00;;;;5067586;28;20064;-65
2023/10/09 11:27:50;;;;;;;8.98;4.30;;;;;23.70;99153.00;;;;5068294;28;20409;-65
2023/10/09 11:30:29;;;;;;;10.02;4.55;;;;;23.70;99138.00;;;;5061311;28;20397;-65
2023/10/09 11:33:07;;;;;;;10.32;4.63;;;;;23.70;99140.00;;;;5054888;28;20056;-65
2023/10/09 11:35:35;;;;;;;7.40;3.95;;;;;23.50;99148.00;;;;5054291;28;20049;-65
2023/10/09 11:38:20;;;;;;;10.48;4.03;;;;;23.30;99146.00;;;;5054634;28;20041;-65
2023/10/09 11:41:04;;;;;;;7.13;3.80;;;;;23.10;99137.00;;;;5053570;28;20124;-65
2023/10/09 11:44:06;;;;;;;;;;;;;23.00;99137.00;;;;5054747;28;20123;-65
2023/10/09 11:46:38;;;;;;;13.88;4.10;;;;;22.90;99135.00;;;;5054867;28;19921;-65
2023/10/09 11:49:26;;;;;;;12.70;5.05;;;;;22.90;99122.00;;;;5053404;28;20049;-64
2023/10/09 11:54:35;;;;;;;10.80;5.20;;;;;23.40;99116.00;;;;5052952;28;20564;-64
2023/10/09 11:57:03;;;;;;;8.07;3.97;;;;;23.50;99115.00;;;;5054259;28;20128;-66
2023/10/09 11:59:37;;;;;;;18.02;4.63;;;;;23.60;99107.00;;;;5054349;28;20041;-65
2023/10/09 12:02:11;;;;;;;13.38;4.47;;;;;23.70;99106.00;;;;5053287;28;20048;-65
2023/10/09 12:04:44;;;;;;;13.18;4.90;;;;;23.80;99114.00;;;;5053920;28;20123;-65
2023/10/09 12:07:12;;;;;;;12.30;4.72;;;;;23.80;99113.00;;;;5054286;28;20049;-67
2023/10/09 12:09:39;;;;;;;13.43;6.88;;;;;23.80;99116.00;;;;5054255;28;20498;-67
2023/10/09 12:12:08;;;;;;;39.20;18.67;;;;;23.90;99124.00;;;;5053305;28;20037;-67
2023/10/09 12:14:37;;;;;;;32.50;15.50;;;;;24.00;99121.00;;;;5052581;28;20099;-67
2023/10/09 12:17:07;;;;;;;29.15;14.32;;;;;24.10;99114.00;;;;5054279;28;20123;-66
2023/10/09 12:19:36;;;;;;;21.73;9.43;;;;;24.20;99119.00;;;;5052980;28;20040;-67
2023/10/09 12:22:05;;;;;;;12.02;6.65;;;;;24.20;99112.00;;;;5054108;28;20048;-66
2023/10/09 12:24:33;;;;;;;12.52;7.68;;;;;24.20;99119.00;;;;5053599;28;20040;-66
2023/10/09 12:27:00;;;;;;;11.73;6.07;;;;;24.30;99120.00;;;;5054114;28;20401;-66
2023/10/09 12:29:32;;;;;;;15.55;6.85;;;;;24.30;99110.00;;;;5053940;28;20041;-65
2023/10/09 12:31:59;;;;;;;9.45;4.72;;;;;24.40;99100.00;;;;5053927;28;20051;-65
2023/10/09 12:34:30;;;;;;;9.95;4.68;;;;;24.50;99107.00;;;;5053369;28;20044;-65
2023/10/09 12:37:01;;;;;;;13.25;5.40;;;;;24.50;99098.00;;;;5053779;28;20045;-65
2023/10/09 12:39:40;;;;;;;11.70;5.00;;;;;24.60;99097.00;;;;5053997;28;20091;-64
2023/10/09 12:42:06;;;;;;;11.48;4.97;;;;;24.70;99094.00;;;;5051464;28;20128;-63
2023/10/09 12:44:42;;;;;;;8.43;4.88;;;;;24.80;99093.00;;;;5052992;28;20048;-63
2023/10/09 12:47:12;;;;;;;9.40;4.97;;;;;24.80;99089.00;;;;5053560;28;20053;-66
2023/10/09 12:49:41;;;;;;;10.50;4.55;;;;;24.90;99086.00;;;;5053579;28;20480;-65
2023/10/09 12:52:16;;;;;;;16.45;4.65;;;;;24.90;99086.00;;;;5053651;28;20475;-67
2023/10/09 12:54:46;;;;;;;10.60;4.95;;;;;24.90;99091.00;;;;5053096;28;20128;-63
2023/10/09 12:57:15;;;;;;;11.27;4.65;;;;;25.00;99073.00;;;;5052000;28;20048;-64
2023/10/09 12:59:45;;;;;;;9.20;4.25;;;;;25.00;99075.00;;;;5053280;28;20095;-63
2023/10/09 13:02:50;;;;;;;9.95;4.82;;;;;25.00;99064.00;;;;5053374;28;20138;-62
2023/10/09 13:05:10;;;;;;;8.25;4.28;;;;;25.10;99059.00;;;;5052419;28;20067;-62
2023/10/09 13:07:37;;;;;;;7.45;4.43;;;;;25.10;99058.00;;;;5053132;28;20044;-62
2023/10/09 13:10:12;;;;;;;7.93;4.25;;;;;25.00;99063.00;;;;5051939;28;20045;-62
2023/10/09 13:12:41;;;;;;;11.45;5.00;;;;;25.00;99068.00;;;;5052914;28;20556;-62
2023/10/09 13:15:09;;;;;;;11.68;4.72;;;;;25.10;99071.00;;;;5052562;28;20120;-61
2023/10/09 13:17:37;;;;;;;9.95;4.63;;;;;25.10;99064.00;;;;5052874;28;20520;-61
2023/10/09 13:20:26;;;;;;;8.05;4.10;;;;;25.20;99060.00;;;;5051486;28;20150;-64
2023/10/09 13:22:53;;;;;;;11.85;4.10;;;;;25.20;99057.00;;;;5051729;28;20041;-64
2023/10/09 13:25:24;;;;;;;11.95;4.70;;;;;25.20;99053.00;;;;5052254;28;20091;-63
2023/10/09 13:28:03;;;;;;;10.13;4.63;;;;;25.20;99053.00;;;;5052725;28;20490;-62
2023/10/09 13:30:38;;;;;;;11.23;4.95;;;;;25.20;99063.00;;;;5052729;28;20037;-62
2023/10/09 13:33:05;;;;;;;10.30;4.45;;;;;25.30;99056.00;;;;5052846;28;20072;-62
2023/10/09 13:35:37;;;;;;;11.55;4.68;;;;;25.20;99057.00;;;;5051953;28;20395;-66
2023/10/09 13:38:09;;;;;;;13.53;6.30;;;;;25.30;99048.00;;;;5052758;28;20051;-64
2023/10/09 13:40:37;;;;;;;8.82;4.30;;;;;25.30;99063.00;;;;5051354;28;20087;-63
2023/10/09 13:43:05;;;;;;;9.90;4.57;;;;;25.30;99058.00;;;;5052340;28;20469;-63
2023/10/09 13:45:38;;;;;;;10.60;4.80;;;;;25.40;99056.00;;;;5051820;28;20047;-63
2023/10/09 13:48:05;;;;;;;13.05;5.00;;;;;25.40;99049.00;;;;5052461;28;20036;-62
2023/10/09 13:50:35;;;;;;;8.70;4.03;;;;;25.40;99055.00;;;;5052199;28;20041;-63
2023/10/09 13:53:07;;;;;;;11.07;4.20;;;;;25.50;99050.00;;;;5052211;28;20072;-62
2023/10/09 13:55:43;;;;;;;11.00;4.72;;;;;25.60;99041.00;;;;5051940;28;20045;-63
2023/10/09 13:58:20;;;;;;;10.95;5.90;;;;;25.60;99054.00;;;;5034587;28;20049;-63
2023/10/09 14:00:49;;;;;;;9.77;4.57;;;;;25.50;99050.00;;;;5051004;28;20049;-63
2023/10/09 14:03:23;;;;;;;8.25;4.25;;;;;25.50;99055.00;;;;5052136;28;20045;-63
2023/10/09 14:05:58;;;;;;;10.00;5.53;;;;;25.50;99049.00;;;;5051921;28;20498;-62
2023/10/09 14:08:28;;;;;;;7.75;4.82;;;;;25.50;99054.00;;;;5052115;28;20486;-63
2023/10/09 14:10:55;;;;;;;10.27;4.65;;;;;25.50;99050.00;;;;5052099;28;20051;-64
2023/10/09 14:13:28;;;;;;;11.63;4.65;;;;;25.50;99034.00;;;;5051970;28;20075;-63
2023/10/09 14:15:59;;;;;;;11.02;5.50;;;;;25.40;99042.00;;;;5051966;28;20059;-63
2023/10/09 14:18:29;;;;;;;7.18;4.68;;;;;25.30;99040.00;;;;5051886;28;20063;-62
2023/10/09 14:20:56;;;;;;;9.68;4.93;;;;;25.30;99042.00;;;;5051789;28;20139;-62
2023/10/09 14:23:24;;;;;;;8.95;4.95;;;;;25.20;99040.00;;;;5052074;28;20079;-62
2023/10/09 14:25:53;;;;;;;10.75;5.35;;;;;25.10;99036.00;;;;5051882;28;20123;-63
2023/10/09 14:28:20;;;;;;;12.10;5.60;;;;;25.10;99033.00;;;;5052135;28;20606;-62
2023/10/09 14:30:53;;;;;;;16.85;5.85;;;;;25.00;99033.00;;;;5050846;28;20041;-63
2023/10/09 14:33:22;;;;;;;;;;;;;25.00;99031.00;;;;5051041;28;20049;-62
2023/10/09 14:35:52;;;;;;;13.23;5.00;;;;;24.80;99037.00;;;;5051896;28;19925;-64
2023/10/09 14:38:21;;;;;;;14.27;5.70;;;;;24.80;99033.00;;;;5051864;28;20040;-63
2023/10/09 14:40:48;;;;;;;8.73;4.90;;;;;24.70;99032.00;;;;5051804;28;20060;-63
2023/10/09 14:43:21;;;;;;;11.50;4.60;;;;;24.70;99033.00;;;;5051831;28;20102;-63
2023/10/09 14:45:48;;;;;;;9.40;5.22;;;;;24.70;99024.00;;;;5050029;28;20516;-63
2023/10/09 14:48:19;;;;;;;9.55;4.82;;;;;24.70;99035.00;;;;5051805;28;20116;-60
2023/10/09 14:50:49;;;;;;;10.70;4.50;;;;;24.70;99031.00;;;;5051639;28;20499;-63
2023/10/09 14:53:16;;;;;;;10.32;4.47;;;;;24.80;99039.00;;;;5051816;28;20041;-63
2023/10/09 14:55:45;;;;;;;10.57;5.22;;;;;24.80;99034.00;;;;5051114;28;20493;-62